sensor_id;sensor_type;location;lat;lon;timestamp;P1;durP1;ratioP1;P2;durP2;ratioP2
41783;SDS011;27458;53.236;-6.622;2022-08-11T00:00:18;6.43;;;1.77;;
41783;SDS011;27458;53.236;-6.622;2022-08-11T00:02:46;4.60;;;1.42;;
41783;SDS011;27458;53.236;-6.622;2022-08-11T00:05:16;5.80;;;1.55;;
41783;SDS011;27458;53.236;-6.622;2022-08-11T00:10:19;2.15;;;1.15;;
41783;SDS011;27458;53.236;-6.622;2022-08-11T00:13:05;2.22;;;1.10;;
41783;SDS011;27458;53.236;-6.622;2022-08-11T00:15:41;3.40;;;1.95;;
41783;SDS011;27458;53.236;-6.622;2022-08-11T00:18:08;8.52;;;1.33;;
41783;SDS011;27458;53.236;-6.622;2022-08-11T00:20:37;1.90;;;1.20;;
41783;SDS011;27458;53.236;-6.622;2022-08-11T00:23:15;3.75;;;1.65;;
41783;SDS011;27458;53.236;-6.622;2022-08-11T00:25:46;1.85;;;1.35;;
41783;SDS011;27458;53.236;-6.622;2022-08-11T00:28:26;2.50;;;1.45;;
41783;SDS011;27458;53.236;-6.622;2022-08-11T00:30:52;1.90;;;1.50;;
41783;SDS011;27458;53.236;-6.622;2022-08-11T00:33:20;3.60;;;1.58;;
41783;SDS011;27458;53.236;-6.622;2022-08-11T00:35:49;3.42;;;2.08;;
41783;SDS011;27458;53.236;-6.622;2022-08-11T00:38:25;4.00;;;1.85;;
41783;SDS011;27458;53.236;-6.622;2022-08-11T00:40:56;3.47;;;1.30;;
41783;SDS011;27458;53.236;-6.622;2022-08-11T00:49:34;3.90;;;1.50;;
41783;SDS011;27458;53.236;-6.622;2022-08-11T01:50:07;1.88;;;1.55;;
41783;SDS011;27458;53.236;-6.622;2022-08-11T01:58:47;3.45;;;1.92;;
41783;SDS011;27458;53.236;-6.622;2022-08-11T02:02:10;3.38;;;2.20;;
41783;SDS011;27458;53.236;-6.622;2022-08-11T02:22:29;3.05;;;1.80;;
41783;SDS011;27458;53.236;-6.622;2022-08-11T02:25:37;3.65;;;2.00;;
41783;SDS011;27458;53.236;-6.622;2022-08-11T02:34:19;1.90;;;1.65;;
41783;SDS011;27458;53.236;-6.622;2022-08-11T02:59:27;2.90;;;1.67;;
41783;SDS011;27458;53.236;-6.622;2022-08-11T03:07:27;2.75;;;1.45;;
41783;SDS011;27458;53.236;-6.622;2022-08-11T03:10:05;2.35;;;1.85;;
41783;SDS011;27458;53.236;-6.622;2022-08-11T03:13:09;9.93;;;1.70;;
41783;SDS011;27458;53.236;-6.622;2022-08-11T03:27:58;2.75;;;1.40;;
41783;SDS011;27458;53.236;-6.622;2022-08-11T03:33:40;3.78;;;1.98;;
41783;SDS011;27458;53.236;-6.622;2022-08-11T03:42:15;3.47;;;2.10;;
41783;SDS011;27458;53.236;-6.622;2022-08-11T03:44:58;4.80;;;2.00;;
41783;SDS011;27458;53.236;-6.622;2022-08-11T03:47:45;4.68;;;2.60;;
41783;SDS011;27458;53.236;-6.622;2022-08-11T03:58:49;2.78;;;1.92;;
41783;SDS011;27458;53.236;-6.622;2022-08-11T04:27:26;3.72;;;1.80;;
41783;SDS011;27458;53.236;-6.622;2022-08-11T04:36:08;4.40;;;2.00;;
41783;SDS011;27458;53.236;-6.622;2022-08-11T04:39:15;3.47;;;2.13;;
41783;SDS011;27458;53.236;-6.622;2022-08-11T04:56:42;4.45;;;1.95;;
41783;SDS011;27458;53.236;-6.622;2022-08-11T05:02:35;2.90;;;2.33;;
41783;SDS011;27458;53.236;-6.622;2022-08-11T05:05:16;3.35;;;2.08;;
41783;SDS011;27458;53.236;-6.622;2022-08-11T05:10:54;5.70;;;1.92;;
41783;SDS011;27458;53.236;-6.622;2022-08-11T05:13:28;2.60;;;2.13;;
41783;SDS011;27458;53.236;-6.622;2022-08-11T05:16:17;3.95;;;2.53;;
41783;SDS011;27458;53.236;-6.622;2022-08-11T05:19:17;4.75;;;1.90;;
41783;SDS011;27458;53.236;-6.622;2022-08-11T05:22:05;4.20;;;2.47;;
41783;SDS011;27458;53.236;-6.622;2022-08-11T05:27:58;5.50;;;2.20;;
41783;SDS011;27458;53.236;-6.622;2022-08-11T05:30:56;3.20;;;1.95;;
41783;SDS011;27458;53.236;-6.622;2022-08-11T05:33:58;11.07;;;2.75;;
41783;SDS011;27458;53.236;-6.622;2022-08-11T05:36:55;2.90;;;2.17;;
41783;SDS011;27458;53.236;-6.622;2022-08-11T05:39:38;3.33;;;2.25;;
41783;SDS011;27458;53.236;-6.622;2022-08-11T05:42:27;4.35;;;2.00;;
41783;SDS011;27458;53.236;-6.622;2022-08-11T05:45:14;4.10;;;2.30;;
41783;SDS011;27458;53.236;-6.622;2022-08-11T05:48:00;3.20;;;2.28;;
41783;SDS011;27458;53.236;-6.622;2022-08-11T05:50:54;4.85;;;2.20;;
41783;SDS011;27458;53.236;-6.622;2022-08-11T05:54:13;2.67;;;2.13;;
41783;SDS011;27458;53.236;-6.622;2022-08-11T05:56:53;3.45;;;2.20;;
41783;SDS011;27458;53.236;-6.622;2022-08-11T05:59:22;2.60;;;2.00;;
41783;SDS011;27458;53.236;-6.622;2022-08-11T06:01:49;2.97;;;1.52;;
41783;SDS011;27458;53.236;-6.622;2022-08-11T06:04:18;3.95;;;1.95;;
41783;SDS011;27458;53.236;-6.622;2022-08-11T06:09:25;3.75;;;2.28;;
41783;SDS011;27458;53.236;-6.622;2022-08-11T06:12:05;2.33;;;1.77;;
41783;SDS011;27458;53.236;-6.622;2022-08-11T06:14:33;3.92;;;1.92;;
41783;SDS011;27458;53.236;-6.622;2022-08-11T06:17:06;4.18;;;1.83;;
41783;SDS011;27458;53.236;-6.622;2022-08-11T06:19:33;4.97;;;1.70;;
41783;SDS011;27458;53.236;-6.622;2022-08-11T06:22:02;2.08;;;1.88;;
41783;SDS011;27458;53.236;-6.622;2022-08-11T06:24:29;1.80;;;1.70;;
41783;SDS011;27458;53.236;-6.622;2022-08-11T06:26:56;2.03;;;1.40;;
41783;SDS011;27458;53.236;-6.622;2022-08-11T06:29:23;3.83;;;2.20;;
41783;SDS011;27458;53.236;-6.622;2022-08-11T06:31:54;2.55;;;1.92;;
41783;SDS011;27458;53.236;-6.622;2022-08-11T06:36:59;3.75;;;1.95;;
41783;SDS011;27458;53.236;-6.622;2022-08-11T06:39:38;2.33;;;2.05;;
41783;SDS011;27458;53.236;-6.622;2022-08-11T06:44:57;6.50;;;2.15;;
41783;SDS011;27458;53.236;-6.622;2022-08-11T06:47:31;6.97;;;1.92;;
41783;SDS011;27458;53.236;-6.622;2022-08-11T06:49:57;2.47;;;1.52;;
41783;SDS011;27458;53.236;-6.622;2022-08-11T06:52:42;2.60;;;1.55;;
41783;SDS011;27458;53.236;-6.622;2022-08-11T06:55:12;5.30;;;1.73;;
41783;SDS011;27458;53.236;-6.622;2022-08-11T06:58:05;5.53;;;2.90;;
41783;SDS011;27458;53.236;-6.622;2022-08-11T07:00:56;2.95;;;2.10;;
41783;SDS011;27458;53.236;-6.622;2022-08-11T07:03:24;2.97;;;1.58;;
41783;SDS011;27458;53.236;-6.622;2022-08-11T07:05:53;4.95;;;1.60;;
41783;SDS011;27458;53.236;-6.622;2022-08-11T07:08:34;11.73;;;2.15;;
41783;SDS011;27458;53.236;-6.622;2022-08-11T07:14:49;5.95;;;1.58;;
41783;SDS011;27458;53.236;-6.622;2022-08-11T07:17:45;7.40;;;2.00;;
41783;SDS011;27458;53.236;-6.622;2022-08-11T07:20:35;6.38;;;2.08;;
41783;SDS011;27458;53.236;-6.622;2022-08-11T07:23:22;13.10;;;2.28;;
41783;SDS011;27458;53.236;-6.622;2022-08-11T07:26:07;9.30;;;2.08;;
41783;SDS011;27458;53.236;-6.622;2022-08-11T07:28:52;22.33;;;3.90;;
41783;SDS011;27458;53.236;-6.622;2022-08-11T07:31:23;6.30;;;2.42;;
41783;SDS011;27458;53.236;-6.622;2022-08-11T07:34:06;12.50;;;2.75;;
41783;SDS011;27458;53.236;-6.622;2022-08-11T07:37:08;7.90;;;2.30;;
41783;SDS011;27458;53.236;-6.622;2022-08-11T07:42:06;6.88;;;2.10;;
41783;SDS011;27458;53.236;-6.622;2022-08-11T07:44:33;10.32;;;2.53;;
41783;SDS011;27458;53.236;-6.622;2022-08-11T07:47:20;8.20;;;2.67;;
41783;SDS011;27458;53.236;-6.622;2022-08-11T07:50:06;6.07;;;2.65;;
41783;SDS011;27458;53.236;-6.622;2022-08-11T07:52:52;4.70;;;1.63;;
41783;SDS011;27458;53.236;-6.622;2022-08-11T07:55:20;6.03;;;1.88;;
41783;SDS011;27458;53.236;-6.622;2022-08-11T07:57:49;3.85;;;2.00;;
41783;SDS011;27458;53.236;-6.622;2022-08-11T08:00:38;5.10;;;1.77;;
41783;SDS011;27458;53.236;-6.622;2022-08-11T08:03:27;6.10;;;2.88;;
41783;SDS011;27458;53.236;-6.622;2022-08-11T08:06:12;4.13;;;2.17;;
41783;SDS011;27458;53.236;-6.622;2022-08-11T08:08:58;4.78;;;1.77;;
41783;SDS011;27458;53.236;-6.622;2022-08-11T08:11:42;7.80;;;1.90;;
41783;SDS011;27458;53.236;-6.622;2022-08-11T08:14:28;5.53;;;1.88;;
41783;SDS011;27458;53.236;-6.622;2022-08-11T08:17:14;3.80;;;1.50;;
41783;SDS011;27458;53.236;-6.622;2022-08-11T08:19:59;4.70;;;1.92;;
41783;SDS011;27458;53.236;-6.622;2022-08-11T08:22:27;4.30;;;1.88;;
41783;SDS011;27458;53.236;-6.622;2022-08-11T08:24:54;4.78;;;2.13;;
41783;SDS011;27458;53.236;-6.622;2022-08-11T08:27:21;3.92;;;1.75;;
41783;SDS011;27458;53.236;-6.622;2022-08-11T08:29:49;7.10;;;1.98;;
41783;SDS011;27458;53.236;-6.622;2022-08-11T08:32:37;8.63;;;2.00;;
41783;SDS011;27458;53.236;-6.622;2022-08-11T08:35:04;4.00;;;1.85;;
41783;SDS011;27458;53.236;-6.622;2022-08-11T08:37:31;3.13;;;1.70;;
41783;SDS011;27458;53.236;-6.622;2022-08-11T08:39:57;8.93;;;2.60;;
41783;SDS011;27458;53.236;-6.622;2022-08-11T08:42:27;3.97;;;2.13;;
41783;SDS011;27458;53.236;-6.622;2022-08-11T08:45:01;3.00;;;1.65;;
41783;SDS011;27458;53.236;-6.622;2022-08-11T08:50:52;7.32;;;2.35;;
41783;SDS011;27458;53.236;-6.622;2022-08-11T08:53:45;6.55;;;1.77;;
41783;SDS011;27458;53.236;-6.622;2022-08-11T08:56:15;5.07;;;1.73;;
41783;SDS011;27458;53.236;-6.622;2022-08-11T08:58:45;7.43;;;1.73;;
41783;SDS011;27458;53.236;-6.622;2022-08-11T09:01:12;2.80;;;1.85;;
41783;SDS011;27458;53.236;-6.622;2022-08-11T09:03:40;3.65;;;1.88;;
41783;SDS011;27458;53.236;-6.622;2022-08-11T09:06:07;5.28;;;1.42;;
41783;SDS011;27458;53.236;-6.622;2022-08-11T09:08:34;3.40;;;1.08;;
41783;SDS011;27458;53.236;-6.622;2022-08-11T09:11:01;7.38;;;2.13;;
41783;SDS011;27458;53.236;-6.622;2022-08-11T09:13:47;3.80;;;1.45;;
41783;SDS011;27458;53.236;-6.622;2022-08-11T09:16:14;3.22;;;1.70;;
41783;SDS011;27458;53.236;-6.622;2022-08-11T09:18:41;4.13;;;1.58;;
41783;SDS011;27458;53.236;-6.622;2022-08-11T09:21:14;3.83;;;1.45;;
41783;SDS011;27458;53.236;-6.622;2022-08-11T09:23:44;3.55;;;1.55;;
41783;SDS011;27458;53.236;-6.622;2022-08-11T09:26:29;5.82;;;2.03;;
41783;SDS011;27458;53.236;-6.622;2022-08-11T09:29:14;11.18;;;1.90;;
41783;SDS011;27458;53.236;-6.622;2022-08-11T09:31:40;6.07;;;1.65;;
41783;SDS011;27458;53.236;-6.622;2022-08-11T09:34:08;3.33;;;1.70;;
41783;SDS011;27458;53.236;-6.622;2022-08-11T09:36:35;4.90;;;2.03;;
41783;SDS011;27458;53.236;-6.622;2022-08-11T09:39:22;4.30;;;1.70;;
41783;SDS011;27458;53.236;-6.622;2022-08-11T09:42:07;4.18;;;1.60;;
41783;SDS011;27458;53.236;-6.622;2022-08-11T09:44:35;4.70;;;1.75;;
41783;SDS011;27458;53.236;-6.622;2022-08-11T09:47:18;3.35;;;1.80;;
41783;SDS011;27458;53.236;-6.622;2022-08-11T09:49:50;2.47;;;1.20;;
41783;SDS011;27458;53.236;-6.622;2022-08-11T09:52:18;4.03;;;1.50;;
41783;SDS011;27458;53.236;-6.622;2022-08-11T09:54:47;3.70;;;1.60;;
41783;SDS011;27458;53.236;-6.622;2022-08-11T09:57:17;5.25;;;1.50;;
41783;SDS011;27458;53.236;-6.622;2022-08-11T10:00:03;3.75;;;1.30;;
41783;SDS011;27458;53.236;-6.622;2022-08-11T10:02:33;3.70;;;1.60;;
41783;SDS011;27458;53.236;-6.622;2022-08-11T10:05:04;2.63;;;1.40;;
41783;SDS011;27458;53.236;-6.622;2022-08-11T10:07:51;4.00;;;1.20;;
41783;SDS011;27458;53.236;-6.622;2022-08-11T10:10:18;7.55;;;1.65;;
41783;SDS011;27458;53.236;-6.622;2022-08-11T10:12:47;3.33;;;1.13;;
41783;SDS011;27458;53.236;-6.622;2022-08-11T10:15:26;4.38;;;1.20;;
41783;SDS011;27458;53.236;-6.622;2022-08-11T10:18:08;1.98;;;1.23;;
41783;SDS011;27458;53.236;-6.622;2022-08-11T10:24:00;3.53;;;0.88;;
41783;SDS011;27458;53.236;-6.622;2022-08-11T10:26:48;2.42;;;1.08;;
41783;SDS011;27458;53.236;-6.622;2022-08-11T10:29:14;4.50;;;1.23;;
41783;SDS011;27458;53.236;-6.622;2022-08-11T10:32:00;6.53;;;1.17;;
41783;SDS011;27458;53.236;-6.622;2022-08-11T10:34:46;1.73;;;0.90;;
41783;SDS011;27458;53.236;-6.622;2022-08-11T10:37:13;3.15;;;1.08;;
41783;SDS011;27458;53.236;-6.622;2022-08-11T10:39:41;4.15;;;1.10;;
41783;SDS011;27458;53.236;-6.622;2022-08-11T10:42:08;3.40;;;1.00;;
41783;SDS011;27458;53.236;-6.622;2022-08-11T10:44:53;3.92;;;0.88;;
41783;SDS011;27458;53.236;-6.622;2022-08-11T10:47:21;4.13;;;1.13;;
41783;SDS011;27458;53.236;-6.622;2022-08-11T10:50:06;2.08;;;0.80;;
41783;SDS011;27458;53.236;-6.622;2022-08-11T10:52:52;4.45;;;1.13;;
41783;SDS011;27458;53.236;-6.622;2022-08-11T10:55:39;3.35;;;1.48;;
41783;SDS011;27458;53.236;-6.622;2022-08-11T10:58:26;2.67;;;1.02;;
41783;SDS011;27458;53.236;-6.622;2022-08-11T11:01:10;4.13;;;1.30;;
41783;SDS011;27458;53.236;-6.622;2022-08-11T11:03:38;4.13;;;1.25;;
41783;SDS011;27458;53.236;-6.622;2022-08-11T11:06:11;5.65;;;1.33;;
41783;SDS011;27458;53.236;-6.622;2022-08-11T11:08:58;4.25;;;1.30;;
41783;SDS011;27458;53.236;-6.622;2022-08-11T11:11:35;6.80;;;1.55;;
41783;SDS011;27458;53.236;-6.622;2022-08-11T11:14:21;3.53;;;1.40;;
41783;SDS011;27458;53.236;-6.622;2022-08-11T11:17:12;2.70;;;1.15;;
41783;SDS011;27458;53.236;-6.622;2022-08-11T11:19:58;4.40;;;1.00;;
41783;SDS011;27458;53.236;-6.622;2022-08-11T11:22:27;5.47;;;1.30;;
41783;SDS011;27458;53.236;-6.622;2022-08-11T11:30:13;2.70;;;0.90;;
41783;SDS011;27458;53.236;-6.622;2022-08-11T11:32:43;3.75;;;1.05;;
41783;SDS011;27458;53.236;-6.622;2022-08-11T11:35:24;9.50;;;1.40;;
41783;SDS011;27458;53.236;-6.622;2022-08-11T11:38:09;3.15;;;1.05;;
41783;SDS011;27458;53.236;-6.622;2022-08-11T11:40:35;5.55;;;1.45;;
41783;SDS011;27458;53.236;-6.622;2022-08-11T11:43:03;4.22;;;1.45;;
41783;SDS011;27458;53.236;-6.622;2022-08-11T11:45:29;3.67;;;1.30;;
41783;SDS011;27458;53.236;-6.622;2022-08-11T11:47:56;2.25;;;1.05;;
41783;SDS011;27458;53.236;-6.622;2022-08-11T11:50:31;3.58;;;1.33;;
41783;SDS011;27458;53.236;-6.622;2022-08-11T11:53:00;4.53;;;1.35;;
41783;SDS011;27458;53.236;-6.622;2022-08-11T11:55:28;3.17;;;1.20;;
41783;SDS011;27458;53.236;-6.622;2022-08-11T11:57:55;2.97;;;1.38;;
41783;SDS011;27458;53.236;-6.622;2022-08-11T12:00:42;7.07;;;1.08;;
41783;SDS011;27458;53.236;-6.622;2022-08-11T12:03:27;4.63;;;1.20;;
41783;SDS011;27458;53.236;-6.622;2022-08-11T12:05:56;8.40;;;1.40;;
41783;SDS011;27458;53.236;-6.622;2022-08-11T12:08:22;2.10;;;1.00;;
41783;SDS011;27458;53.236;-6.622;2022-08-11T12:16:06;17.27;;;1.92;;
41783;SDS011;27458;53.236;-6.622;2022-08-11T12:18:37;6.78;;;1.20;;
41783;SDS011;27458;53.236;-6.622;2022-08-11T12:21:06;1.63;;;0.80;;
41783;SDS011;27458;53.236;-6.622;2022-08-11T12:23:34;5.10;;;1.20;;
41783;SDS011;27458;53.236;-6.622;2022-08-11T12:26:20;3.13;;;0.90;;
41783;SDS011;27458;53.236;-6.622;2022-08-11T12:29:06;3.47;;;0.80;;
41783;SDS011;27458;53.236;-6.622;2022-08-11T12:31:34;7.68;;;1.15;;
41783;SDS011;27458;53.236;-6.622;2022-08-11T12:34:02;4.30;;;1.20;;
41783;SDS011;27458;53.236;-6.622;2022-08-11T12:36:32;4.05;;;1.25;;
41783;SDS011;27458;53.236;-6.622;2022-08-11T12:39:02;3.88;;;1.08;;
41783;SDS011;27458;53.236;-6.622;2022-08-11T12:41:33;3.97;;;0.88;;
41783;SDS011;27458;53.236;-6.622;2022-08-11T12:44:19;3.70;;;1.05;;
41783;SDS011;27458;53.236;-6.622;2022-08-11T12:47:08;11.75;;;1.10;;
41783;SDS011;27458;53.236;-6.622;2022-08-11T12:49:35;2.88;;;0.63;;
41783;SDS011;27458;53.236;-6.622;2022-08-11T12:52:25;7.13;;;1.13;;
41783;SDS011;27458;53.236;-6.622;2022-08-11T12:55:10;3.67;;;0.93;;
41783;SDS011;27458;53.236;-6.622;2022-08-11T12:58:04;4.22;;;0.98;;
41783;SDS011;27458;53.236;-6.622;2022-08-11T13:00:45;2.38;;;1.00;;
41783;SDS011;27458;53.236;-6.622;2022-08-11T13:03:31;1.77;;;0.90;;
41783;SDS011;27458;53.236;-6.622;2022-08-11T13:06:17;5.25;;;1.10;;
41783;SDS011;27458;53.236;-6.622;2022-08-11T13:08:47;3.45;;;0.80;;
41783;SDS011;27458;53.236;-6.622;2022-08-11T13:11:13;1.02;;;0.80;;
41783;SDS011;27458;53.236;-6.622;2022-08-11T13:13:59;3.15;;;0.90;;
41783;SDS011;27458;53.236;-6.622;2022-08-11T13:16:27;2.88;;;1.08;;
41783;SDS011;27458;53.236;-6.622;2022-08-11T13:19:20;1.80;;;0.73;;
41783;SDS011;27458;53.236;-6.622;2022-08-11T13:21:48;1.55;;;0.70;;
41783;SDS011;27458;53.236;-6.622;2022-08-11T13:24:15;2.90;;;1.20;;
41783;SDS011;27458;53.236;-6.622;2022-08-11T13:26:42;5.90;;;1.20;;
41783;SDS011;27458;53.236;-6.622;2022-08-11T13:29:09;2.42;;;0.90;;
41783;SDS011;27458;53.236;-6.622;2022-08-11T13:31:36;1.88;;;1.00;;
41783;SDS011;27458;53.236;-6.622;2022-08-11T13:34:02;9.32;;;0.82;;
41783;SDS011;27458;53.236;-6.622;2022-08-11T13:36:32;2.78;;;0.80;;
41783;SDS011;27458;53.236;-6.622;2022-08-11T13:38:59;5.18;;;0.90;;
41783;SDS011;27458;53.236;-6.622;2022-08-11T13:41:26;2.67;;;1.42;;
41783;SDS011;27458;53.236;-6.622;2022-08-11T13:44:03;3.08;;;0.63;;
41783;SDS011;27458;53.236;-6.622;2022-08-11T13:46:34;6.10;;;1.30;;
41783;SDS011;27458;53.236;-6.622;2022-08-11T13:49:00;2.22;;;0.85;;
41783;SDS011;27458;53.236;-6.622;2022-08-11T13:51:27;2.75;;;0.70;;
41783;SDS011;27458;53.236;-6.622;2022-08-11T13:53:55;1.67;;;0.80;;
41783;SDS011;27458;53.236;-6.622;2022-08-11T13:56:27;13.45;;;1.27;;
41783;SDS011;27458;53.236;-6.622;2022-08-11T13:58:54;7.25;;;0.82;;
41783;SDS011;27458;53.236;-6.622;2022-08-11T14:01:22;6.20;;;0.80;;
41783;SDS011;27458;53.236;-6.622;2022-08-11T14:03:53;4.40;;;0.90;;
41783;SDS011;27458;53.236;-6.622;2022-08-11T14:06:20;1.15;;;0.63;;
41783;SDS011;27458;53.236;-6.622;2022-08-11T14:08:47;6.05;;;0.98;;
41783;SDS011;27458;53.236;-6.622;2022-08-11T14:11:17;3.13;;;1.50;;
41783;SDS011;27458;53.236;-6.622;2022-08-11T14:14:03;2.88;;;0.95;;
41783;SDS011;27458;53.236;-6.622;2022-08-11T14:19:04;2.08;;;0.50;;
41783;SDS011;27458;53.236;-6.622;2022-08-11T14:21:36;5.57;;;0.90;;
41783;SDS011;27458;53.236;-6.622;2022-08-11T14:24:22;4.60;;;0.77;;
41783;SDS011;27458;53.236;-6.622;2022-08-11T14:26:49;2.58;;;0.77;;
41783;SDS011;27458;53.236;-6.622;2022-08-11T14:29:18;3.95;;;0.80;;
41783;SDS011;27458;53.236;-6.622;2022-08-11T14:31:47;2.50;;;0.93;;
41783;SDS011;27458;53.236;-6.622;2022-08-11T14:34:18;6.68;;;1.00;;
41783;SDS011;27458;53.236;-6.622;2022-08-11T14:36:46;2.85;;;0.80;;
41783;SDS011;27458;53.236;-6.622;2022-08-11T14:39:17;3.53;;;0.60;;
41783;SDS011;27458;53.236;-6.622;2022-08-11T14:44:33;2.38;;;0.90;;
41783;SDS011;27458;53.236;-6.622;2022-08-11T14:47:19;3.67;;;0.95;;
41783;SDS011;27458;53.236;-6.622;2022-08-11T14:49:46;5.18;;;0.80;;
41783;SDS011;27458;53.236;-6.622;2022-08-11T14:52:16;1.35;;;0.73;;
41783;SDS011;27458;53.236;-6.622;2022-08-11T14:54:43;3.40;;;0.80;;
41783;SDS011;27458;53.236;-6.622;2022-08-11T14:57:31;2.72;;;0.60;;
41783;SDS011;27458;53.236;-6.622;2022-08-11T15:00:00;6.93;;;0.80;;
41783;SDS011;27458;53.236;-6.622;2022-08-11T15:02:28;3.95;;;0.80;;
41783;SDS011;27458;53.236;-6.622;2022-08-11T15:05:13;5.93;;;0.70;;
41783;SDS011;27458;53.236;-6.622;2022-08-11T15:07:40;1.17;;;0.73;;
41783;SDS011;27458;53.236;-6.622;2022-08-11T15:10:07;1.55;;;0.63;;
41783;SDS011;27458;53.236;-6.622;2022-08-11T15:12:34;1.95;;;0.70;;
41783;SDS011;27458;53.236;-6.622;2022-08-11T15:15:01;1.20;;;0.90;;
41783;SDS011;27458;53.236;-6.622;2022-08-11T15:17:48;3.95;;;0.70;;
41783;SDS011;27458;53.236;-6.622;2022-08-11T15:20:17;7.03;;;1.10;;
41783;SDS011;27458;53.236;-6.622;2022-08-11T15:23:03;1.90;;;0.73;;
41783;SDS011;27458;53.236;-6.622;2022-08-11T15:26:02;2.83;;;0.82;;
41783;SDS011;27458;53.236;-6.622;2022-08-11T15:29:10;3.70;;;1.02;;
41783;SDS011;27458;53.236;-6.622;2022-08-11T15:31:58;3.05;;;1.00;;
41783;SDS011;27458;53.236;-6.622;2022-08-11T15:34:58;4.13;;;1.10;;
41783;SDS011;27458;53.236;-6.622;2022-08-11T15:37:44;3.90;;;1.00;;
41783;SDS011;27458;53.236;-6.622;2022-08-11T15:43:25;0.82;;;0.55;;
41783;SDS011;27458;53.236;-6.622;2022-08-11T15:49:10;5.05;;;1.30;;
41783;SDS011;27458;53.236;-6.622;2022-08-11T15:51:49;4.88;;;0.80;;
41783;SDS011;27458;53.236;-6.622;2022-08-11T15:54:32;4.97;;;0.95;;
41783;SDS011;27458;53.236;-6.622;2022-08-11T15:57:02;2.17;;;0.60;;
41783;SDS011;27458;53.236;-6.622;2022-08-11T15:59:33;2.20;;;0.77;;
41783;SDS011;27458;53.236;-6.622;2022-08-11T16:02:22;2.15;;;0.75;;
41783;SDS011;27458;53.236;-6.622;2022-08-11T16:05:09;0.82;;;0.65;;
41783;SDS011;27458;53.236;-6.622;2022-08-11T16:07:37;3.10;;;0.70;;
41783;SDS011;27458;53.236;-6.622;2022-08-11T16:10:10;2.92;;;0.70;;
41783;SDS011;27458;53.236;-6.622;2022-08-11T16:12:53;3.97;;;0.90;;
41783;SDS011;27458;53.236;-6.622;2022-08-11T16:15:33;3.20;;;0.80;;
41783;SDS011;27458;53.236;-6.622;2022-08-11T16:18:21;3.25;;;1.10;;
41783;SDS011;27458;53.236;-6.622;2022-08-11T16:21:04;3.42;;;0.95;;
41783;SDS011;27458;53.236;-6.622;2022-08-11T16:23:34;2.75;;;0.75;;
41783;SDS011;27458;53.236;-6.622;2022-08-11T16:26:01;1.10;;;1.00;;
41783;SDS011;27458;53.236;-6.622;2022-08-11T16:28:29;3.47;;;0.70;;
41783;SDS011;27458;53.236;-6.622;2022-08-11T16:30:58;1.80;;;0.80;;
41783;SDS011;27458;53.236;-6.622;2022-08-11T16:33:24;3.15;;;2.20;;
41783;SDS011;27458;53.236;-6.622;2022-08-11T16:35:50;4.05;;;1.67;;
41783;SDS011;27458;53.236;-6.622;2022-08-11T16:38:36;1.67;;;1.00;;
41783;SDS011;27458;53.236;-6.622;2022-08-11T16:41:05;4.20;;;1.17;;
41783;SDS011;27458;53.236;-6.622;2022-08-11T16:43:36;1.30;;;1.10;;
41783;SDS011;27458;53.236;-6.622;2022-08-11T16:46:24;2.45;;;0.80;;
41783;SDS011;27458;53.236;-6.622;2022-08-11T16:49:17;2.10;;;0.90;;
41783;SDS011;27458;53.236;-6.622;2022-08-11T16:51:52;2.63;;;1.10;;
41783;SDS011;27458;53.236;-6.622;2022-08-11T16:54:18;1.88;;;1.38;;
41783;SDS011;27458;53.236;-6.622;2022-08-11T16:56:48;3.08;;;1.13;;
41783;SDS011;27458;53.236;-6.622;2022-08-11T16:59:32;2.22;;;1.20;;
41783;SDS011;27458;53.236;-6.622;2022-08-11T17:02:13;2.38;;;1.75;;
41783;SDS011;27458;53.236;-6.622;2022-08-11T17:05:06;6.80;;;2.80;;
41783;SDS011;27458;53.236;-6.622;2022-08-11T17:07:54;5.75;;;3.03;;
41783;SDS011;27458;53.236;-6.622;2022-08-11T17:10:47;7.57;;;2.63;;
41783;SDS011;27458;53.236;-6.622;2022-08-11T17:14:19;8.93;;;3.78;;
41783;SDS011;27458;53.236;-6.622;2022-08-11T17:16:33;10.27;;;5.63;;
41783;SDS011;27458;53.236;-6.622;2022-08-11T17:19:04;9.45;;;7.70;;
41783;SDS011;27458;53.236;-6.622;2022-08-11T17:24:02;6.15;;;4.32;;
41783;SDS011;27458;53.236;-6.622;2022-08-11T17:26:34;7.47;;;4.70;;
41783;SDS011;27458;53.236;-6.622;2022-08-11T17:31:55;14.55;;;9.20;;
41783;SDS011;27458;53.236;-6.622;2022-08-11T17:34:41;8.85;;;5.93;;
41783;SDS011;27458;53.236;-6.622;2022-08-11T17:37:28;7.93;;;4.28;;
41783;SDS011;27458;53.236;-6.622;2022-08-11T17:39:57;5.47;;;2.70;;
41783;SDS011;27458;53.236;-6.622;2022-08-11T17:42:26;2.95;;;1.65;;
41783;SDS011;27458;53.236;-6.622;2022-08-11T17:45:13;5.95;;;3.60;;
41783;SDS011;27458;53.236;-6.622;2022-08-11T17:48:00;15.38;;;10.20;;
41783;SDS011;27458;53.236;-6.622;2022-08-11T17:50:47;20.70;;;13.27;;
41783;SDS011;27458;53.236;-6.622;2022-08-11T17:53:13;17.02;;;10.52;;
41783;SDS011;27458;53.236;-6.622;2022-08-11T17:56:00;18.08;;;11.48;;
41783;SDS011;27458;53.236;-6.622;2022-08-11T17:58:45;18.63;;;10.73;;
41783;SDS011;27458;53.236;-6.622;2022-08-11T18:01:32;23.52;;;13.93;;
41783;SDS011;27458;53.236;-6.622;2022-08-11T18:04:02;26.33;;;15.52;;
41783;SDS011;27458;53.236;-6.622;2022-08-11T18:06:41;24.08;;;14.85;;
41783;SDS011;27458;53.236;-6.622;2022-08-11T18:09:18;20.08;;;11.82;;
41783;SDS011;27458;53.236;-6.622;2022-08-11T18:12:05;17.75;;;9.88;;
41783;SDS011;27458;53.236;-6.622;2022-08-11T18:14:51;16.73;;;6.30;;
41783;SDS011;27458;53.236;-6.622;2022-08-11T18:17:37;5.85;;;3.10;;
41783;SDS011;27458;53.236;-6.622;2022-08-11T18:20:24;4.75;;;3.00;;
41783;SDS011;27458;53.236;-6.622;2022-08-11T18:23:14;4.10;;;1.90;;
41783;SDS011;27458;53.236;-6.622;2022-08-11T18:26:01;6.97;;;1.65;;
41783;SDS011;27458;53.236;-6.622;2022-08-11T18:28:47;2.53;;;1.13;;
41783;SDS011;27458;53.236;-6.622;2022-08-11T18:31:36;3.10;;;1.25;;
41783;SDS011;27458;53.236;-6.622;2022-08-11T18:37:18;2.10;;;0.93;;
41783;SDS011;27458;53.236;-6.622;2022-08-11T18:40:19;4.07;;;1.10;;
41783;SDS011;27458;53.236;-6.622;2022-08-11T18:43:09;2.45;;;0.90;;
41783;SDS011;27458;53.236;-6.622;2022-08-11T18:46:00;2.08;;;0.70;;
41783;SDS011;27458;53.236;-6.622;2022-08-11T18:48:58;0.80;;;0.50;;
41783;SDS011;27458;53.236;-6.622;2022-08-11T18:51:46;5.97;;;0.52;;
41783;SDS011;27458;53.236;-6.622;2022-08-11T18:54:33;1.40;;;0.88;;
41783;SDS011;27458;53.236;-6.622;2022-08-11T18:57:20;4.03;;;1.90;;
41783;SDS011;27458;53.236;-6.622;2022-08-11T19:00:05;2.80;;;1.20;;
41783;SDS011;27458;53.236;-6.622;2022-08-11T19:02:50;5.25;;;2.75;;
41783;SDS011;27458;53.236;-6.622;2022-08-11T19:05:35;2.28;;;1.30;;
41783;SDS011;27458;53.236;-6.622;2022-08-11T19:08:20;3.70;;;2.50;;
41783;SDS011;27458;53.236;-6.622;2022-08-11T19:11:05;2.92;;;1.20;;
41783;SDS011;27458;53.236;-6.622;2022-08-11T19:13:52;3.92;;;1.23;;
41783;SDS011;27458;53.236;-6.622;2022-08-11T19:16:38;1.90;;;1.10;;
41783;SDS011;27458;53.236;-6.622;2022-08-11T19:19:25;1.70;;;0.75;;
41783;SDS011;27458;53.236;-6.622;2022-08-11T19:22:12;1.45;;;0.80;;
41783;SDS011;27458;53.236;-6.622;2022-08-11T19:24:56;1.85;;;0.70;;
41783;SDS011;27458;53.236;-6.622;2022-08-11T19:27:43;0.93;;;0.65;;
41783;SDS011;27458;53.236;-6.622;2022-08-11T19:30:31;0.98;;;0.52;;
41783;SDS011;27458;53.236;-6.622;2022-08-11T19:33:16;0.98;;;0.60;;
41783;SDS011;27458;53.236;-6.622;2022-08-11T19:36:02;1.38;;;0.60;;
41783;SDS011;27458;53.236;-6.622;2022-08-11T19:38:48;1.40;;;0.73;;
41783;SDS011;27458;53.236;-6.622;2022-08-11T19:41:32;2.38;;;0.60;;
41783;SDS011;27458;53.236;-6.622;2022-08-11T19:44:17;1.20;;;0.50;;
41783;SDS011;27458;53.236;-6.622;2022-08-11T19:47:04;2.20;;;0.70;;
41783;SDS011;27458;53.236;-6.622;2022-08-11T19:49:49;1.60;;;1.00;;
41783;SDS011;27458;53.236;-6.622;2022-08-11T19:52:35;2.70;;;0.77;;
41783;SDS011;27458;53.236;-6.622;2022-08-11T19:55:23;7.13;;;0.70;;
41783;SDS011;27458;53.236;-6.622;2022-08-11T19:58:09;0.75;;;0.52;;